Roblin, Canada
Current Conditions -  °F | °C
As of 9:37 PM on Saturday 24 Jan 2015 (Local Time) from CYQV Reporting Station
Overcast Overcast  
Wind Chill:   Ceiling: 1600
Heat Index: 16°   Visibility: 9mi
Dew Point: 12°   Wind: 7mph
Humidity: 86%   Direction: 30°NNE
Pressure: 29.82"   Gusts: NA
Location:  51.23°N, 101.35°W
Report Text: CYQV 250337Z AUTO 03006KT 9SM OVC016 M09/M11 A2982 RMK PRESRR SLP133
Loading
Personal Weather Stations






























Interactive Weather Map New forecast layout! Learn more

10-Day Weather Forecast

Advertisements
Track Severe Weather on mobile